Time;durP1;ratioP1;P1;durP2;ratioP2;P2;SDS_P1;SDS_P2;PMS_P1;PMS_P2;Temp;Humidity;BMP_temperature;BMP_pressure;BME280_temperature;BME280_humidity;BME280_pressure;Samples;Min_cycle;Max_cycle;Signal;HPM_P1;HPM_P2
2022/10/30 00:00:04;;;;;;;12.98;6.70;;;14.40;99.90;;;;;;4960396;28;20042;-40
2022/10/30 00:02:30;;;;;;;19.80;5.95;;;14.40;99.90;;;;;;4964477;28;20190;-43
2022/10/30 00:04:55;;;;;;;9.80;5.47;;;14.30;99.90;;;;;;4968132;28;20555;-42
2022/10/30 00:07:21;;;;;;;11.93;5.85;;;14.30;99.90;;;;;;4968820;28;20127;-42
2022/10/30 00:09:46;;;;;;;9.40;5.30;;;14.30;99.90;;;;;;4970696;28;20101;-41
2022/10/30 00:12:12;;;;;;;13.18;5.55;;;14.30;99.90;;;;;;4971182;28;20412;-42
2022/10/30 00:14:38;;;;;;;17.05;5.07;;;14.20;99.90;;;;;;4968256;28;20050;-41
2022/10/30 00:17:03;;;;;;;11.40;5.43;;;14.20;99.90;;;;;;4971319;28;20047;-42
2022/10/30 00:19:29;;;;;;;13.38;6.57;;;14.20;99.90;;;;;;4971951;28;20695;-41
2022/10/30 00:21:56;;;;;;;12.73;6.35;;;14.10;99.90;;;;;;4968723;28;20038;-41
2022/10/30 00:24:22;;;;;;;17.98;5.72;;;14.10;99.90;;;;;;4963147;28;20079;-40
2022/10/30 00:26:48;;;;;;;14.95;5.70;;;14.10;99.90;;;;;;4969091;28;20042;-42
2022/10/30 00:29:14;;;;;;;15.63;6.68;;;14.10;99.90;;;;;;4969457;28;20057;-41
2022/10/30 00:31:40;;;;;;;9.57;5.32;;;14.10;99.90;;;;;;4968553;28;20055;-41
2022/10/30 00:34:06;;;;;;;11.10;6.30;;;14.10;99.90;;;;;;4968776;28;20427;-42
2022/10/30 00:36:32;;;;;;;18.48;5.55;;;14.10;99.90;;;;;;4970456;28;20039;-42
2022/10/30 00:38:57;;;;;;;15.23;6.45;;;14.10;99.90;;;;;;4975820;28;20129;-43
2022/10/30 00:41:24;;;;;;;11.50;4.75;;;14.10;99.90;;;;;;4967089;28;20046;-45
2022/10/30 00:43:50;;;;;;;14.95;6.07;;;14.10;99.90;;;;;;4958981;28;20083;-42
2022/10/30 00:46:34;;;;;;;9.75;5.22;;;14.10;99.90;;;;;;4964002;28;20547;-40
2022/10/30 00:49:09;;;;;;;14.73;5.63;;;14.00;99.90;;;;;;4970027;28;20070;-40
2022/10/30 00:51:37;;;;;;;14.20;6.03;;;14.00;99.90;;;;;;4968127;28;20047;-41
2022/10/30 00:54:06;;;;;;;11.75;5.78;;;14.00;99.90;;;;;;4962410;28;20043;-41
2022/10/30 00:56:32;;;;;;;14.82;5.43;;;14.00;99.90;;;;;;4967795;28;20550;-43
2022/10/30 00:59:12;;;;;;;10.90;4.90;;;14.00;99.90;;;;;;4968146;28;20114;-43
2022/10/30 01:01:41;;;;;;;13.85;5.20;;;14.00;99.90;;;;;;4967485;28;20165;-42
2022/10/30 01:04:07;;;;;;;12.48;5.43;;;14.00;99.90;;;;;;4960651;28;20061;-42
2022/10/30 01:06:37;;;;;;;11.05;5.53;;;14.00;99.90;;;;;;4966988;28;20042;-41
2022/10/30 01:09:03;;;;;;;13.38;6.18;;;13.90;99.90;;;;;;4973077;28;20042;-43
2022/10/30 01:11:29;;;;;;;14.18;5.22;;;14.00;99.90;;;;;;4965459;28;20046;-40
2022/10/30 01:14:00;;;;;;;12.27;5.55;;;13.90;99.90;;;;;;4964538;28;20057;-42
2022/10/30 01:16:52;;;;;;;10.80;4.75;;;13.90;99.90;;;;;;4967701;28;20065;-41
2022/10/30 01:19:47;;;;;;;12.90;5.90;;;13.90;99.90;;;;;;4967392;28;20133;-42
2022/10/30 01:22:18;;;;;;;13.00;5.78;;;14.00;99.90;;;;;;4964350;28;20511;-41
2022/10/30 01:25:10;;;;;;;15.68;5.72;;;14.00;99.90;;;;;;4961253;28;20117;-41
2022/10/30 01:27:57;;;;;;;16.15;5.47;;;13.90;99.90;;;;;;4962429;28;20492;-42
2022/10/30 01:30:41;;;;;;;11.70;4.68;;;13.90;99.90;;;;;;4969463;28;20047;-40
2022/10/30 01:33:34;;;;;;;12.68;4.93;;;13.90;99.90;;;;;;4970662;28;20185;-41
2022/10/30 01:36:15;;;;;;;10.52;5.38;;;13.90;99.90;;;;;;4967037;28;20043;-40
2022/10/30 01:38:50;;;;;;;12.30;5.22;;;14.00;99.90;;;;;;4968301;28;20070;-44
2022/10/30 01:41:16;;;;;;;10.48;4.82;;;13.90;99.90;;;;;;4968331;28;20083;-41
2022/10/30 01:43:44;;;;;;;10.20;4.70;;;13.90;99.90;;;;;;4954161;28;20559;-42
2022/10/30 01:46:19;;;;;;;11.48;4.95;;;13.90;99.90;;;;;;4964875;28;20035;-39
2022/10/30 01:48:51;;;;;;;10.90;4.95;;;13.90;99.90;;;;;;4968574;28;20053;-41
2022/10/30 01:51:44;;;;;;;15.15;5.10;;;13.90;99.90;;;;;;4966045;28;20104;-41
2022/10/30 01:54:32;;;;;;;10.77;5.00;;;13.90;99.90;;;;;;4963112;28;20038;-40
2022/10/30 01:57:22;;;;;;;8.82;4.03;;;13.90;99.90;;;;;;4947471;28;20034;-42
2022/10/30 02:00:01;;;;;;;13.70;5.60;;;13.90;99.90;;;;;;4966425;28;20035;-42
2022/10/30 02:02:27;;;;;;;14.38;6.15;;;13.90;99.90;;;;;;4951084;28;20495;-42
2022/10/30 02:04:53;;;;;;;9.73;5.43;;;13.80;99.90;;;;;;4966547;28;20078;-42
2022/10/30 02:07:19;;;;;;;10.13;4.90;;;13.80;99.90;;;;;;4968984;28;20049;-44
2022/10/30 02:09:44;;;;;;;11.10;5.68;;;13.80;99.90;;;;;;4971380;28;20519;-39
2022/10/30 02:12:10;;;;;;;10.23;5.15;;;13.80;99.90;;;;;;4966627;28;20050;-40
2022/10/30 02:14:42;;;;;;;10.10;5.03;;;13.80;99.90;;;;;;4966476;28;20101;-41
2022/10/30 02:17:10;;;;;;;14.37;5.53;;;13.70;99.90;;;;;;4970337;28;20515;-42
2022/10/30 02:19:36;;;;;;;11.63;5.63;;;13.70;99.90;;;;;;4965017;28;20097;-41
2022/10/30 02:22:02;;;;;;;9.20;5.10;;;13.70;99.90;;;;;;4966608;28;20110;-40
2022/10/30 02:24:30;;;;;;;10.63;5.50;;;13.60;99.90;;;;;;4954553;28;20566;-42
2022/10/30 02:26:56;;;;;;;14.68;5.97;;;13.60;99.90;;;;;;4969893;28;20109;-42
2022/10/30 02:29:21;;;;;;;14.48;6.05;;;13.60;99.90;;;;;;4970927;28;20042;-43
2022/10/30 02:31:47;;;;;;;15.63;5.45;;;13.50;99.90;;;;;;4967814;28;20479;-41
2022/10/30 02:34:13;;;;;;;12.95;5.57;;;13.50;99.90;;;;;;4970743;28;20054;-40
2022/10/30 02:36:39;;;;;;;16.70;6.20;;;13.50;99.90;;;;;;4974023;28;20519;-40
2022/10/30 02:39:05;;;;;;;12.35;5.68;;;13.40;99.90;;;;;;4973061;28;20047;-42
2022/10/30 02:41:31;;;;;;;13.05;6.18;;;13.40;99.90;;;;;;4972250;28;20495;-40
2022/10/30 02:43:57;;;;;;;16.90;6.60;;;13.40;99.90;;;;;;4969488;28;20097;-41
2022/10/30 02:46:23;;;;;;;11.93;6.30;;;13.30;99.90;;;;;;4968910;28;20491;-41
2022/10/30 02:48:48;;;;;;;13.20;5.50;;;13.30;99.90;;;;;;4975169;28;20030;-43
2022/10/30 02:51:14;;;;;;;10.82;5.50;;;13.30;99.90;;;;;;4969607;28;20045;-42
2022/10/30 02:53:40;;;;;;;11.88;4.57;;;13.30;99.90;;;;;;4971729;28;20034;-40
2022/10/30 02:56:13;;;;;;;14.95;5.03;;;13.20;99.90;;;;;;4953584;28;20038;-41
2022/10/30 02:58:39;;;;;;;11.50;5.13;;;13.20;99.90;;;;;;4972775;28;20043;-42
2022/10/30 03:01:10;;;;;;;9.38;4.93;;;13.20;99.90;;;;;;4968498;28;20046;-42
2022/10/30 03:03:36;;;;;;;11.52;5.10;;;13.20;99.90;;;;;;4969771;28;20768;-39
2022/10/30 03:06:07;;;;;;;15.25;5.80;;;13.20;99.90;;;;;;4970931;28;20118;-43
2022/10/30 03:08:33;;;;;;;11.60;4.97;;;13.20;99.90;;;;;;4968188;28;20042;-42
2022/10/30 03:11:05;;;;;;;14.48;6.30;;;13.20;99.90;;;;;;4965702;28;20043;-42
2022/10/30 03:13:32;;;;;;;10.37;4.73;;;13.20;99.90;;;;;;4970479;28;20503;-42
2022/10/30 03:16:00;;;;;;;13.63;5.75;;;13.20;99.90;;;;;;4974477;28;20073;-42
2022/10/30 03:18:25;;;;;;;12.77;5.65;;;13.20;99.90;;;;;;4958147;28;20061;-41
2022/10/30 03:20:58;;;;;;;14.38;5.97;;;13.20;99.90;;;;;;4964524;28;20047;-41
2022/10/30 03:23:23;;;;;;;;;;;13.10;99.90;;;;;;4974260;28;20650;-39
2022/10/30 03:25:57;;;;;;;10.07;5.05;;;13.10;99.90;;;;;;4958700;28;20020;-41
2022/10/30 03:28:24;;;;;;;13.52;6.05;;;13.10;99.90;;;;;;4964230;28;20030;-41
2022/10/30 03:30:56;;;;;;;14.15;4.80;;;13.10;99.90;;;;;;4969515;28;20046;-41
2022/10/30 03:33:22;;;;;;;13.80;6.28;;;13.10;99.90;;;;;;4974092;28;20039;-42
2022/10/30 03:35:48;;;;;;;11.20;5.57;;;13.10;99.90;;;;;;4968306;28;20038;-42
2022/10/30 03:38:13;;;;;;;12.48;6.03;;;13.00;99.90;;;;;;4967369;28;20042;-42
2022/10/30 03:40:39;;;;;;;14.23;6.13;;;13.00;99.90;;;;;;4975262;28;20038;-40
2022/10/30 03:43:06;;;;;;;10.85;5.85;;;13.00;99.90;;;;;;4954138;28;20034;-42
2022/10/30 03:45:34;;;;;;;11.40;5.32;;;13.00;99.90;;;;;;4962837;28;20423;-40
2022/10/30 03:48:01;;;;;;;16.20;5.32;;;13.00;99.90;;;;;;4957636;28;20047;-40
2022/10/30 03:50:27;;;;;;;12.05;5.35;;;13.00;99.90;;;;;;4966810;28;20042;-39
2022/10/30 03:52:55;;;;;;;10.45;5.15;;;13.00;99.90;;;;;;4971610;28;20116;-40
2022/10/30 03:55:21;;;;;;;11.75;5.25;;;13.00;99.90;;;;;;4970340;28;20373;-43
2022/10/30 03:57:47;;;;;;;14.30;6.03;;;12.90;99.90;;;;;;4966762;28;20077;-42
2022/10/30 04:00:13;;;;;;;13.63;5.40;;;12.90;99.90;;;;;;4965451;28;20074;-40
2022/10/30 04:02:47;;;;;;;17.27;7.25;;;12.90;99.90;;;;;;4968452;28;20043;-41
2022/10/30 04:05:18;;;;;;;18.10;5.45;;;12.90;99.90;;;;;;4969109;28;20508;-44
2022/10/30 04:07:44;;;;;;;13.40;5.38;;;12.90;99.90;;;;;;4967866;28;20038;-40
2022/10/30 04:10:11;;;;;;;9.52;4.93;;;12.90;99.90;;;;;;4969577;28;20049;-41
2022/10/30 04:12:37;;;;;;;11.13;4.70;;;12.90;99.90;;;;;;4966158;28;20567;-40
2022/10/30 04:15:04;;;;;;;15.25;6.03;;;12.80;99.90;;;;;;4965239;28;20039;-41
2022/10/30 04:17:30;;;;;;;13.57;6.05;;;12.80;99.90;;;;;;4975132;28;20034;-42
2022/10/30 04:19:56;;;;;;;19.67;6.68;;;12.80;99.90;;;;;;4965956;28;20046;-41
2022/10/30 04:22:22;;;;;;;12.88;6.25;;;12.80;99.90;;;;;;4964827;28;20515;-40
2022/10/30 04:24:48;;;;;;;11.07;5.97;;;12.80;99.90;;;;;;4964692;28;20030;-42
2022/10/30 04:27:14;;;;;;;11.75;5.25;;;12.70;99.90;;;;;;4973497;28;20050;-41
2022/10/30 04:29:43;;;;;;;10.07;5.22;;;12.70;99.90;;;;;;4954605;28;20133;-40
2022/10/30 04:32:09;;;;;;;15.05;5.72;;;12.70;99.90;;;;;;4965026;28;20456;-42
2022/10/30 04:34:35;;;;;;;9.63;4.40;;;12.70;99.90;;;;;;4970523;28;20039;-42
2022/10/30 04:37:01;;;;;;;11.27;6.05;;;12.70;99.90;;;;;;4954017;28;20519;-41
2022/10/30 04:39:26;;;;;;;14.60;5.10;;;12.70;99.90;;;;;;4968465;28;20046;-42
2022/10/30 04:41:52;;;;;;;12.57;4.90;;;12.70;99.90;;;;;;4969763;28;20049;-42
2022/10/30 04:44:18;;;;;;;10.90;4.82;;;12.60;99.90;;;;;;4969237;28;20034;-41
2022/10/30 04:46:43;;;;;;;16.13;6.95;;;12.60;99.90;;;;;;4968355;28;20034;-42
2022/10/30 04:49:09;;;;;;;12.57;6.05;;;12.60;99.90;;;;;;4971994;28;20404;-40
2022/10/30 04:51:35;;;;;;;11.90;5.18;;;12.60;99.90;;;;;;4965527;28;20484;-40
2022/10/30 04:54:00;;;;;;;16.27;5.65;;;12.60;99.90;;;;;;4965443;28;20452;-43
2022/10/30 04:56:26;;;;;;;16.85;5.60;;;12.60;99.90;;;;;;4968306;28;20097;-43
2022/10/30 04:58:52;;;;;;;14.15;6.15;;;12.50;99.90;;;;;;4967455;28;20066;-40
2022/10/30 05:01:19;;;;;;;14.70;5.47;;;12.50;99.90;;;;;;4967849;28;20172;-43
2022/10/30 05:03:44;;;;;;;17.45;5.85;;;12.50;99.90;;;;;;4969465;28;20057;-41
2022/10/30 05:06:21;;;;;;;12.02;6.10;;;12.50;99.90;;;;;;4965419;28;20039;-40
2022/10/30 05:08:48;;;;;;;13.80;5.03;;;12.50;99.90;;;;;;4967910;28;20039;-42
2022/10/30 05:11:14;;;;;;;12.90;5.78;;;12.50;99.90;;;;;;4965703;28;20050;-40
2022/10/30 05:13:40;;;;;;;13.35;5.40;;;12.50;99.90;;;;;;4970222;28;20070;-40
2022/10/30 05:16:06;;;;;;;12.15;5.90;;;12.50;99.90;;;;;;4950940;28;20105;-42
2022/10/30 05:18:31;;;;;;;10.68;5.50;;;12.50;99.90;;;;;;4975219;28;20042;-40
2022/10/30 05:20:57;;;;;;;14.65;6.25;;;12.50;99.90;;;;;;4966963;28;20054;-43
2022/10/30 05:23:23;;;;;;;15.57;6.03;;;12.50;99.90;;;;;;4968952;28;20137;-43
2022/10/30 05:25:49;;;;;;;11.20;5.38;;;12.50;99.90;;;;;;4965845;28;20128;-41
2022/10/30 05:28:15;;;;;;;14.52;7.13;;;12.50;99.90;;;;;;4971250;28;20077;-40
2022/10/30 05:30:41;;;;;;;14.57;6.38;;;12.50;99.90;;;;;;4966047;28;20062;-38
2022/10/30 05:33:09;;;;;;;19.42;8.05;;;12.50;99.90;;;;;;4972967;28;20114;-39
2022/10/30 05:35:35;;;;;;;13.43;6.00;;;12.50;99.90;;;;;;4968841;28;20048;-42
2022/10/30 05:38:03;;;;;;;14.18;6.88;;;12.50;99.90;;;;;;4974791;28;20511;-42
2022/10/30 05:40:29;;;;;;;12.77;6.32;;;12.50;99.90;;;;;;4951999;28;20038;-40
2022/10/30 05:42:55;;;;;;;15.52;6.00;;;12.50;99.90;;;;;;4965039;28;20149;-40
2022/10/30 05:45:20;;;;;;;11.73;5.72;;;12.50;99.90;;;;;;4965999;28;20447;-40
2022/10/30 05:48:01;;;;;;;14.45;6.40;;;12.50;99.90;;;;;;4968385;28;20381;-43
2022/10/30 05:50:27;;;;;;;12.13;5.20;;;12.50;99.90;;;;;;4955155;28;20042;-40
2022/10/30 05:53:02;;;;;;;12.93;5.70;;;12.50;99.90;;;;;;4951778;28;20050;-41
2022/10/30 05:55:28;;;;;;;11.00;5.00;;;12.50;99.90;;;;;;4965399;28;20046;-42
2022/10/30 05:57:58;;;;;;;11.43;5.05;;;12.40;99.90;;;;;;4970575;28;20039;-40
2022/10/30 06:00:25;;;;;;;13.52;6.55;;;12.40;99.90;;;;;;4971296;28;20122;-39
2022/10/30 06:02:51;;;;;;;14.75;5.20;;;12.40;99.90;;;;;;4971930;28;20042;-39
2022/10/30 06:05:17;;;;;;;12.63;5.80;;;12.40;99.90;;;;;;4969836;28;20117;-41
2022/10/30 06:07:42;;;;;;;11.93;5.40;;;12.30;99.90;;;;;;4972075;28;20043;-41
2022/10/30 06:10:08;;;;;;;12.77;6.55;;;12.30;99.90;;;;;;4970941;28;20038;-39
2022/10/30 06:12:34;;;;;;;15.75;6.78;;;12.30;99.90;;;;;;4969814;28;20119;-40
2022/10/30 06:14:59;;;;;;;15.68;6.93;;;12.30;99.90;;;;;;4972173;28;20042;-40
2022/10/30 06:17:25;;;;;;;11.70;5.93;;;12.20;99.90;;;;;;4972243;28;20069;-39
2022/10/30 06:19:51;;;;;;;15.88;7.20;;;12.20;99.90;;;;;;4967322;28;20497;-41
2022/10/30 06:22:16;;;;;;;10.68;6.32;;;12.20;99.90;;;;;;4971235;28;20389;-40
2022/10/30 06:24:42;;;;;;;13.68;6.00;;;12.20;99.90;;;;;;4971269;28;20377;-40
2022/10/30 06:27:08;;;;;;;9.57;4.90;;;12.20;99.90;;;;;;4969528;28;20053;-41
2022/10/30 06:29:33;;;;;;;13.85;6.10;;;12.20;99.90;;;;;;4967661;28;20047;-39
2022/10/30 06:31:59;;;;;;;19.40;6.80;;;12.20;99.90;;;;;;4969635;28;20063;-40
2022/10/30 06:34:27;;;;;;;13.90;6.25;;;12.20;99.90;;;;;;4969408;28;20050;-43
2022/10/30 06:36:53;;;;;;;15.63;7.10;;;12.20;99.90;;;;;;4973434;28;20039;-40
2022/10/30 06:39:19;;;;;;;15.90;6.75;;;12.20;99.90;;;;;;4974044;28;20038;-40
2022/10/30 06:41:44;;;;;;;13.90;5.95;;;12.20;99.90;;;;;;4969525;28;20136;-42
2022/10/30 06:44:10;;;;;;;14.05;6.45;;;12.20;99.90;;;;;;4972633;28;20035;-40
2022/10/30 06:46:36;;;;;;;14.30;6.70;;;12.20;99.90;;;;;;4970787;28;20070;-40
2022/10/30 06:49:01;;;;;;;14.77;6.72;;;12.30;99.90;;;;;;4969021;28;20798;-39
2022/10/30 06:51:27;;;;;;;14.98;6.80;;;12.30;99.90;;;;;;4969154;28;20050;-40
2022/10/30 06:53:53;;;;;;;12.77;6.45;;;12.30;99.90;;;;;;4969367;28;20127;-39
2022/10/30 06:56:18;;;;;;;15.32;6.78;;;12.30;99.90;;;;;;4972805;28;20038;-41
2022/10/30 06:58:44;;;;;;;16.75;7.93;;;12.30;99.90;;;;;;4971515;28;20514;-41
2022/10/30 07:01:10;;;;;;;17.55;8.40;;;12.30;99.90;;;;;;4972622;28;20050;-41
2022/10/30 07:03:35;;;;;;;13.73;8.18;;;12.30;99.90;;;;;;4968414;28;20031;-40
2022/10/30 07:06:02;;;;;;;16.45;7.22;;;12.40;99.90;;;;;;4969619;28;20031;-41
2022/10/30 07:08:28;;;;;;;15.27;7.18;;;12.40;99.90;;;;;;4970955;28;20363;-40
2022/10/30 07:10:56;;;;;;;11.18;6.03;;;12.50;99.90;;;;;;4969488;28;20178;-40
2022/10/30 07:13:22;;;;;;;19.02;7.03;;;12.50;99.90;;;;;;4978822;28;20125;-42
2022/10/30 07:15:48;;;;;;;14.93;6.38;;;12.50;99.90;;;;;;4952619;28;20117;-40
2022/10/30 07:18:13;;;;;;;18.33;7.60;;;12.50;99.90;;;;;;4971012;28;20061;-40
2022/10/30 07:20:39;;;;;;;13.77;7.07;;;12.60;99.90;;;;;;4967448;28;20043;-41
2022/10/30 07:23:05;;;;;;;12.77;6.10;;;12.60;99.90;;;;;;4971131;28;20038;-41
2022/10/30 07:25:30;;;;;;;11.45;5.40;;;12.60;99.90;;;;;;4963524;28;20042;-41
2022/10/30 07:27:56;;;;;;;11.23;6.28;;;12.70;99.90;;;;;;4969696;28;20519;-40
2022/10/30 07:30:25;;;;;;;12.68;6.25;;;12.70;99.90;;;;;;4969642;28;20126;-39
2022/10/30 07:33:02;;;;;;;14.65;6.47;;;12.70;99.90;;;;;;4959174;28;20078;-40
2022/10/30 07:35:29;;;;;;;18.80;6.72;;;12.70;99.90;;;;;;4969388;28;20108;-39
2022/10/30 07:37:55;;;;;;;16.70;7.07;;;12.70;99.90;;;;;;4973396;28;20043;-40
2022/10/30 07:40:21;;;;;;;14.68;7.20;;;12.80;99.90;;;;;;4972749;28;20043;-42
2022/10/30 07:42:47;;;;;;;15.93;7.88;;;12.80;99.90;;;;;;4964209;28;20047;-42
2022/10/30 07:45:13;;;;;;;14.13;7.82;;;12.80;99.90;;;;;;4968394;28;20073;-42
2022/10/30 07:47:42;;;;;;;16.55;7.18;;;12.90;99.90;;;;;;4972255;28;20038;-40
2022/10/30 07:50:08;;;;;;;16.98;7.25;;;12.90;99.90;;;;;;4972354;28;20523;-41
2022/10/30 07:52:34;;;;;;;9.48;5.65;;;12.90;99.90;;;;;;4970141;28;20145;-41
2022/10/30 07:55:00;;;;;;;15.55;7.13;;;12.90;99.90;;;;;;4951360;28;20517;-42
2022/10/30 07:57:26;;;;;;;14.73;7.75;;;13.00;99.90;;;;;;4969178;28;20035;-39
2022/10/30 07:59:51;;;;;;;18.23;8.32;;;13.00;99.90;;;;;;4969294;28;20038;-42
2022/10/30 08:02:17;;;;;;;17.33;7.47;;;13.10;99.90;;;;;;4969593;28;20495;-41
2022/10/30 08:04:43;;;;;;;14.32;7.13;;;13.10;99.90;;;;;;4969089;28;20042;-43
2022/10/30 08:07:08;;;;;;;13.77;6.55;;;13.20;99.90;;;;;;4970016;28;20038;-44
2022/10/30 08:09:34;;;;;;;18.27;7.97;;;13.20;99.90;;;;;;4966562;28;20038;-40
2022/10/30 08:11:59;;;;;;;12.77;6.45;;;13.20;99.90;;;;;;4975154;28;20503;-41
2022/10/30 08:14:25;;;;;;;14.55;7.63;;;13.30;99.90;;;;;;4952121;28;20070;-41
2022/10/30 08:16:51;;;;;;;19.50;8.40;;;13.30;99.90;;;;;;4964516;28;20054;-42
2022/10/30 08:19:16;;;;;;;21.98;8.68;;;13.40;99.90;;;;;;4969010;28;20043;-42
2022/10/30 08:21:42;;;;;;;16.77;8.20;;;13.50;99.90;;;;;;4967277;28;20494;-41
2022/10/30 08:24:08;;;;;;;15.73;8.13;;;13.50;99.90;;;;;;4962154;28;20039;-40
2022/10/30 08:26:34;;;;;;;15.85;7.97;;;13.60;99.90;;;;;;4957775;28;20047;-41
2022/10/30 08:29:00;;;;;;;16.40;7.65;;;13.70;99.90;;;;;;4962042;28;20504;-41
2022/10/30 08:31:26;;;;;;;16.92;8.82;;;13.70;99.90;;;;;;4973278;28;20043;-42
2022/10/30 08:33:51;;;;;;;14.50;8.07;;;13.80;99.90;;;;;;4948173;28;20039;-42
2022/10/30 08:36:17;;;;;;;13.32;6.95;;;13.90;99.90;;;;;;4965453;28;20074;-40
2022/10/30 08:38:42;;;;;;;15.10;8.05;;;13.90;99.90;;;;;;4964391;28;20122;-43
2022/10/30 08:41:08;;;;;;;14.70;7.78;;;14.00;99.90;;;;;;4967465;28;20153;-42
2022/10/30 08:43:33;;;;;;;15.50;6.85;;;14.10;99.90;;;;;;4969622;28;20124;-41
2022/10/30 08:46:00;;;;;;;19.58;8.77;;;14.20;99.90;;;;;;4966849;28;20045;-40
2022/10/30 08:48:26;;;;;;;13.13;6.65;;;14.20;99.90;;;;;;4965459;28;20292;-40
2022/10/30 08:50:51;;;;;;;19.08;8.38;;;14.30;99.90;;;;;;4972486;28;20499;-40
2022/10/30 08:53:19;;;;;;;11.48;6.95;;;14.40;99.90;;;;;;4953132;28;20061;-41
2022/10/30 08:55:44;;;;;;;14.02;7.25;;;14.50;99.90;;;;;;4967151;28;20042;-40
2022/10/30 08:58:10;;;;;;;16.20;8.32;;;14.60;99.90;;;;;;4968341;28;20042;-41
2022/10/30 09:00:36;;;;;;;13.18;7.20;;;14.70;99.90;;;;;;4960973;28;20115;-40
2022/10/30 09:03:01;;;;;;;13.57;7.22;;;14.70;99.90;;;;;;4951947;28;20077;-41
2022/10/30 09:05:27;;;;;;;16.30;7.82;;;14.80;99.90;;;;;;4970973;28;20045;-44
2022/10/30 09:07:57;;;;;;;13.48;6.55;;;14.90;99.90;;;;;;4960505;28;20042;-40
2022/10/30 09:10:23;;;;;;;13.80;8.18;;;14.90;99.90;;;;;;4965776;28;20522;-40
2022/10/30 09:12:54;;;;;;;19.15;9.00;;;15.00;99.90;;;;;;4965211;28;20039;-41
2022/10/30 09:15:20;;;;;;;16.13;8.73;;;15.10;99.90;;;;;;4948868;28;20081;-41
2022/10/30 09:17:46;;;;;;;22.52;9.50;;;15.20;99.90;;;;;;4961628;28;20140;-40
2022/10/30 09:20:12;;;;;;;15.00;8.20;;;15.30;99.90;;;;;;4956261;28;20572;-40
2022/10/30 09:22:41;;;;;;;17.35;9.13;;;15.40;99.90;;;;;;4960745;28;20047;-41
2022/10/30 09:25:07;;;;;;;21.30;9.27;;;15.60;99.90;;;;;;4960946;28;20031;-40
2022/10/30 09:27:39;;;;;;;17.83;8.25;;;15.70;99.90;;;;;;4963590;28;20503;-41
2022/10/30 09:30:05;;;;;;;17.92;8.13;;;15.80;99.90;;;;;;4962984;28;20046;-40
2022/10/30 09:32:31;;;;;;;14.73;7.80;;;15.90;99.90;;;;;;4967430;28;20047;-42
2022/10/30 09:34:57;;;;;;;17.50;8.93;;;15.90;99.90;;;;;;4949548;28;20046;-42
2022/10/30 09:37:23;;;;;;;15.20;7.95;;;16.00;99.90;;;;;;4962957;28;20039;-42
2022/10/30 09:39:49;;;;;;;17.67;8.43;;;16.10;99.90;;;;;;4966509;28;20725;-40
2022/10/30 09:42:45;;;;;;;16.92;8.50;;;16.10;99.90;;;;;;4965931;28;20046;-40
2022/10/30 09:45:59;;;;;;;16.05;7.70;;;16.20;99.90;;;;;;4963627;28;20424;-42
2022/10/30 09:48:38;;;;;;;13.25;7.20;;;16.30;99.90;;;;;;4954132;28;20054;-42
2022/10/30 09:51:22;;;;;;;18.45;9.25;;;16.40;99.90;;;;;;4967411;28;20043;-40
2022/10/30 09:54:04;;;;;;;14.35;7.57;;;16.50;99.90;;;;;;4959197;28;20055;-40
2022/10/30 09:56:43;;;;;;;;;;;16.50;99.90;;;;;;4966242;28;20392;-41
2022/10/30 09:59:38;;;;;;;25.63;9.38;;;16.60;99.90;;;;;;4968518;28;19965;-41
2022/10/30 10:02:27;;;;;;;19.75;9.13;;;16.70;99.90;;;;;;4969610;28;20596;-41
2022/10/30 10:05:17;;;;;;;23.10;9.02;;;16.80;99.90;;;;;;4968445;28;20065;-40
2022/10/30 10:07:55;;;;;;;13.10;7.35;;;16.90;99.90;;;;;;4948841;28;20079;-42
2022/10/30 10:10:38;;;;;;;19.42;8.35;;;17.00;99.90;;;;;;4964408;28;20046;-40
2022/10/30 10:13:08;;;;;;;24.33;8.88;;;17.10;99.90;;;;;;4962406;28;20078;-40
2022/10/30 10:15:57;;;;;;;17.65;8.80;;;17.10;99.90;;;;;;4962502;28;20078;-40
2022/10/30 10:18:36;;;;;;;15.68;6.97;;;17.20;99.90;;;;;;4959622;28;20105;-41
2022/10/30 10:21:12;;;;;;;12.60;7.20;;;17.30;99.90;;;;;;4966716;28;20105;-43
2022/10/30 10:23:47;;;;;;;13.10;8.43;;;17.40;99.90;;;;;;4966046;28;20043;-42
2022/10/30 10:26:32;;;;;;;15.13;8.18;;;17.50;99.90;;;;;;4958821;28;20073;-42
2022/10/30 10:29:27;;;;;;;12.30;7.32;;;17.50;99.90;;;;;;4963890;28;20047;-40
2022/10/30 10:32:23;;;;;;;18.38;7.93;;;17.60;99.90;;;;;;4964732;28;20681;-40
2022/10/30 10:34:57;;;;;;;14.73;7.22;;;17.70;99.90;;;;;;4951734;28;20046;-43
2022/10/30 10:37:43;;;;;;;13.60;7.20;;;17.80;99.90;;;;;;4967136;28;20117;-41
2022/10/30 10:40:35;;;;;;;19.20;8.27;;;17.90;99.90;;;;;;4962911;28;20044;-39
2022/10/30 10:43:36;;;;;;;16.83;7.70;;;18.00;99.90;;;;;;4942849;28;20069;-40
2022/10/30 10:46:29;;;;;;;12.75;7.50;;;18.10;99.90;;;;;;4950984;28;21710;-42
2022/10/30 10:49:04;;;;;;;;;;;18.20;99.90;;;;;;4969863;28;20612;-40
2022/10/30 10:51:59;;;;;;;14.68;6.80;;;18.30;99.90;;;;;;4964116;28;19934;-40
2022/10/30 10:54:44;;;;;;;16.38;7.28;;;18.50;99.90;;;;;;4964248;28;20053;-42
2022/10/30 10:57:20;;;;;;;16.27;7.20;;;18.50;99.90;;;;;;4968677;28;20069;-39
2022/10/30 10:59:50;;;;;;;13.27;8.25;;;18.60;99.90;;;;;;4967923;28;20043;-42
2022/10/30 11:02:35;;;;;;;12.95;6.65;;;18.80;99.90;;;;;;4968760;28;20058;-42
2022/10/30 11:05:28;;;;;;;15.30;7.28;;;18.90;99.90;;;;;;4972815;28;20496;-41
2022/10/30 11:08:00;;;;;;;15.25;6.80;;;19.00;99.90;;;;;;4971107;28;20148;-42
2022/10/30 11:10:25;;;;;;;15.23;6.63;;;19.10;99.90;;;;;;4968460;28;20042;-40
2022/10/30 11:12:51;;;;;;;13.90;7.22;;;19.10;99.90;;;;;;4965615;28;20046;-40
2022/10/30 11:15:17;;;;;;;14.40;7.10;;;19.30;99.90;;;;;;4969563;28;20039;-40
2022/10/30 11:18:03;;;;;;;13.00;6.13;;;19.60;99.90;;;;;;4966031;28;20043;-42
2022/10/30 11:20:43;;;;;;;12.45;6.93;;;19.90;99.90;;;;;;4964046;28;20145;-41
2022/10/30 11:23:39;;;;;;;13.00;6.50;;;20.40;99.90;;;;;;4970475;28;20073;-42
2022/10/30 11:26:17;;;;;;;13.98;7.18;;;20.70;99.90;;;;;;4967051;28;20062;-41
2022/10/30 11:28:48;;;;;;;17.63;6.72;;;21.10;99.90;;;;;;4961900;28;20136;-40
2022/10/30 11:31:33;;;;;;;17.17;6.77;;;21.40;99.90;;;;;;4964639;28;20073;-40
2022/10/30 11:34:17;;;;;;;14.27;6.30;;;21.60;99.90;;;;;;4968259;28;20039;-41
2022/10/30 11:36:53;;;;;;;16.35;6.97;;;22.00;99.60;;;;;;4972482;28;20054;-42
2022/10/30 11:39:20;;;;;;;13.27;6.03;;;22.20;99.10;;;;;;4970968;28;20113;-43
2022/10/30 11:42:01;;;;;;;13.90;6.35;;;22.10;99.20;;;;;;4968882;28;20046;-43
2022/10/30 11:44:33;;;;;;;15.15;6.78;;;22.30;99.00;;;;;;4971115;28;20034;-42
2022/10/30 11:47:00;;;;;;;13.70;6.97;;;22.40;98.40;;;;;;4970207;28;20046;-42
2022/10/30 11:49:39;;;;;;;17.00;7.60;;;22.30;98.20;;;;;;4973405;28;20031;-43
2022/10/30 11:52:06;;;;;;;14.70;5.63;;;22.20;97.80;;;;;;4964762;28;20756;-40
2022/10/30 11:54:38;;;;;;;12.45;6.03;;;22.30;98.00;;;;;;4965673;28;20105;-42
2022/10/30 11:57:15;;;;;;;11.88;5.88;;;22.50;97.50;;;;;;4971546;28;20046;-43
2022/10/30 11:59:45;;;;;;;13.30;5.65;;;22.70;97.10;;;;;;4967408;28;20130;-41
2022/10/30 12:02:26;;;;;;;13.40;5.38;;;22.70;96.80;;;;;;4968749;28;20062;-40
2022/10/30 12:04:53;;;;;;;12.25;4.65;;;22.50;96.40;;;;;;4965034;28;20121;-40
2022/10/30 12:07:22;;;;;;;9.65;5.43;;;22.10;97.40;;;;;;4967643;28;20035;-41
2022/10/30 12:09:47;;;;;;;14.15;6.30;;;21.70;98.00;;;;;;4970780;28;20035;-44
2022/10/30 12:12:37;;;;;;;13.68;5.20;;;21.50;98.90;;;;;;4970221;28;20042;-42
2022/10/30 12:15:19;;;;;;;11.35;5.60;;;21.40;98.90;;;;;;4967600;28;20047;-39
2022/10/30 12:17:59;;;;;;;8.60;4.20;;;21.30;99.20;;;;;;4964266;28;20050;-40
2022/10/30 12:20:26;;;;;;;11.30;4.35;;;21.30;99.20;;;;;;4969686;28;20113;-42
2022/10/30 12:22:52;;;;;;;9.65;4.85;;;21.30;99.50;;;;;;4970283;28;20055;-43
2022/10/30 12:25:38;;;;;;;12.80;4.30;;;21.50;99.30;;;;;;4964980;28;20093;-43
2022/10/30 12:28:14;;;;;;;17.65;5.93;;;21.50;98.30;;;;;;4959546;28;20057;-41
2022/10/30 12:31:15;;;;;;;23.02;5.68;;;21.60;98.70;;;;;;4965655;28;20073;-41
2022/10/30 12:33:49;;;;;;;13.18;4.45;;;21.80;98.00;;;;;;4965508;28;20892;-43
2022/10/30 12:36:20;;;;;;;13.07;4.80;;;22.00;98.00;;;;;;4966153;28;20066;-44
2022/10/30 12:38:55;;;;;;;9.18;4.88;;;22.30;97.30;;;;;;4964940;28;20042;-43
2022/10/30 12:41:26;;;;;;;10.20;4.40;;;22.50;96.50;;;;;;4964273;28;20519;-44
2022/10/30 12:44:06;;;;;;;12.30;4.90;;;22.80;95.70;;;;;;4942043;28;20157;-40
2022/10/30 12:46:37;;;;;;;11.55;5.28;;;23.10;94.40;;;;;;4963913;28;20220;-40
2022/10/30 12:49:30;;;;;;;10.43;4.60;;;23.30;94.20;;;;;;4963930;28;20039;-43
2022/10/30 12:52:18;;;;;;;11.27;4.25;;;23.70;92.50;;;;;;4969323;28;20047;-41
2022/10/30 12:54:59;;;;;;;12.80;4.75;;;24.10;91.70;;;;;;4963233;28;20062;-43